Time;durP1;ratioP1;P1;durP2;ratioP2;P2;SDS_P1;SDS_P2;PMS_P1;PMS_P2;Temp;Humidity;BMP_temperature;BMP_pressure;BME280_temperature;BME280_humidity;BME280_pressure;Samples;Min_cycle;Max_cycle;Signal;HPM_P1;HPM_P2
2023/03/14 00:00:54;;;;;;;3.10;1.90;;;;;;;;;;5091224;28;20031;-84
2023/03/14 00:03:20;;;;;;;2.47;2.25;;;;;;;;;;5087297;28;20111;-84
2023/03/14 00:05:45;;;;;;;3.65;3.05;;;;;;;;;;5089850;28;20350;-83
2023/03/14 00:08:11;;;;;;;2.17;1.63;;;;;;;;;;5091583;28;20028;-84
2023/03/14 00:10:37;;;;;;;1.80;1.42;;;;;;;;;;5085645;28;20032;-84
2023/03/14 00:13:03;;;;;;;4.28;1.88;;;;;;;;;;5088980;28;20107;-83
2023/03/14 00:15:28;;;;;;;2.90;1.77;;;;;;;;;;5091551;28;20056;-83
2023/03/14 00:17:54;;;;;;;1.08;0.98;;;;;;;;;;5085224;28;20342;-83
2023/03/14 00:20:19;;;;;;;2.50;1.70;;;;;;;;;;5086885;28;20051;-83
2023/03/14 00:22:45;;;;;;;2.10;1.60;;;;;;;;;;5084769;28;20123;-85
2023/03/14 00:25:11;;;;;;;4.20;2.35;;;;;;;;;;5086583;28;20024;-85
2023/03/14 00:27:37;;;;;;;4.90;2.05;;;;;;;;;;5091438;28;20036;-87
2023/03/14 00:30:04;;;;;;;6.10;1.35;;;;;;;;;;5090709;28;20031;-85
2023/03/14 00:32:29;;;;;;;0.93;0.82;;;;;;;;;;5085450;28;20178;-86
2023/03/14 00:34:54;;;;;;;1.05;1.00;;;;;;;;;;5087556;28;20471;-87
2023/03/14 00:37:20;;;;;;;4.97;1.50;;;;;;;;;;5083240;28;20095;-88
2023/03/14 00:39:45;;;;;;;1.55;1.45;;;;;;;;;;5083914;28;20030;-86
2023/03/14 00:42:11;;;;;;;1.67;1.15;;;;;;;;;;5082948;28;20031;-85
2023/03/14 00:44:36;;;;;;;1.65;1.30;;;;;;;;;;5090253;28;20102;-86
2023/03/14 00:47:02;;;;;;;4.78;1.70;;;;;;;;;;5084494;28;20033;-84
2023/03/14 00:49:27;;;;;;;1.60;1.45;;;;;;;;;;5084048;28;20024;-85
2023/03/14 00:51:53;;;;;;;2.50;1.35;;;;;;;;;;5084537;28;20103;-83
2023/03/14 00:54:19;;;;;;;1.55;1.20;;;;;;;;;;5089272;28;20028;-84
2023/03/14 00:56:45;;;;;;;1.65;1.45;;;;;;;;;;5085829;28;20053;-84
2023/03/14 00:59:10;;;;;;;1.50;1.40;;;;;;;;;;5084655;28;20024;-83
2023/03/14 01:01:36;;;;;;;5.90;3.03;;;;;;;;;;5086412;28;20024;-84
2023/03/14 01:04:02;;;;;;;2.65;1.80;;;;;;;;;;5088050;28;20035;-85
2023/03/14 01:06:28;;;;;;;1.98;1.17;;;;;;;;;;5087899;28;20028;-84
2023/03/14 01:08:55;;;;;;;5.43;2.67;;;;;;;;;;5087703;28;20031;-84
2023/03/14 01:11:29;;;;;;;3.55;2.42;;;;;;;;;;5087819;28;20020;-84
2023/03/14 01:13:55;;;;;;;2.78;1.52;;;;;;;;;;5087860;28;20076;-84
2023/03/14 01:16:23;;;;;;;3.58;1.70;;;;;;;;;;5084109;28;20087;-84
2023/03/14 01:18:49;;;;;;;4.20;1.70;;;;;;;;;;5086864;28;20428;-85
2023/03/14 01:21:19;;;;;;;7.68;2.17;;;;;;;;;;5084561;28;20078;-84
2023/03/14 01:23:45;;;;;;;3.05;1.60;;;;;;;;;;5085738;28;20034;-85
2023/03/14 01:26:12;;;;;;;3.83;1.73;;;;;;;;;;5090421;28;20100;-84
2023/03/14 01:28:38;;;;;;;2.42;1.77;;;;;;;;;;5081226;28;20464;-84
2023/03/14 01:31:09;;;;;;;6.68;1.45;;;;;;;;;;5088767;28;20082;-85
2023/03/14 01:33:35;;;;;;;3.63;2.30;;;;;;;;;;5086333;28;21432;-84
2023/03/14 01:36:02;;;;;;;2.55;2.25;;;;;;;;;;5086409;28;20024;-85
2023/03/14 01:38:28;;;;;;;2.97;1.90;;;;;;;;;;5108858;28;20076;-85
2023/03/14 01:40:54;;;;;;;3.40;2.10;;;;;;;;;;5084061;28;20092;-88
2023/03/14 01:43:20;;;;;;;4.55;2.78;;;;;;;;;;5082662;28;20082;-87
2023/03/14 01:46:06;;;;;;;1.65;1.30;;;;;;;;;;5087319;28;20074;-87
2023/03/14 01:48:42;;;;;;;1.05;0.82;;;;;;;;;;5083293;28;20036;-85
2023/03/14 01:51:12;;;;;;;3.92;2.55;;;;;;;;;;5091774;28;20035;-86
2023/03/14 01:53:39;;;;;;;2.28;1.30;;;;;;;;;;5085797;28;20096;-85
2023/03/14 01:56:05;;;;;;;8.85;3.38;;;;;;;;;;5088099;28;20023;-86
2023/03/14 01:58:34;;;;;;;6.07;1.98;;;;;;;;;;5086240;28;20494;-87
2023/03/14 02:01:01;;;;;;;3.05;2.03;;;;;;;;;;5087328;28;20154;-87
2023/03/14 02:03:29;;;;;;;2.33;1.63;;;;;;;;;;5085496;28;20077;-86
2023/03/14 02:05:57;;;;;;;2.72;1.88;;;;;;;;;;5086575;28;20107;-88
2023/03/14 02:08:24;;;;;;;2.03;1.45;;;;;;;;;;5088994;28;20054;-86
2023/03/14 02:10:50;;;;;;;1.80;1.50;;;;;;;;;;5108812;28;20020;-86
2023/03/14 02:13:18;;;;;;;2.13;1.65;;;;;;;;;;5084925;28;20029;-90
2023/03/14 02:15:44;;;;;;;1.60;1.50;;;;;;;;;;5083939;28;20076;-87
2023/03/14 02:18:10;;;;;;;4.05;2.00;;;;;;;;;;5087345;28;20062;-86
2023/03/14 02:20:48;;;;;;;3.38;1.90;;;;;;;;;;5082149;28;20388;-87
2023/03/14 02:23:16;;;;;;;14.38;1.85;;;;;;;;;;5105837;28;20028;-84
2023/03/14 02:25:51;;;;;;;0.80;0.80;;;;;;;;;;5084159;28;20036;-89
2023/03/14 02:28:17;;;;;;;1.52;1.42;;;;;;;;;;5080987;28;20024;-86
2023/03/14 02:30:43;;;;;;;1.65;1.50;;;;;;;;;;5084559;28;20029;-85
2023/03/14 02:33:12;;;;;;;2.05;1.73;;;;;;;;;;5082554;28;20503;-86
2023/03/14 02:35:55;;;;;;;0.65;0.57;;;;;;;;;;5086696;28;20107;-83
2023/03/14 02:38:39;;;;;;;2.20;1.48;;;;;;;;;;5083630;28;20111;-83
2023/03/14 02:41:05;;;;;;;1.00;0.95;;;;;;;;;;5108203;28;20032;-83
2023/03/14 02:43:31;;;;;;;4.07;1.92;;;;;;;;;;5082425;28;20542;-83
2023/03/14 02:45:56;;;;;;;3.15;1.17;;;;;;;;;;5084652;28;20107;-84
2023/03/14 02:48:26;;;;;;;4.10;2.35;;;;;;;;;;5084140;28;20030;-85
2023/03/14 02:50:55;;;;;;;3.72;1.70;;;;;;;;;;5088042;28;20119;-85
2023/03/14 02:53:27;;;;;;;2.00;1.40;;;;;;;;;;5082964;28;20051;-85
2023/03/14 02:55:52;;;;;;;3.08;1.70;;;;;;;;;;5082128;28;20028;-85
2023/03/14 02:58:19;;;;;;;5.13;2.75;;;;;;;;;;5085199;28;20501;-85
2023/03/14 03:00:45;;;;;;;3.92;2.00;;;;;;;;;;5088094;28;20023;-87
2023/03/14 03:03:11;;;;;;;2.35;1.25;;;;;;;;;;5080753;28;20028;-84
2023/03/14 03:05:36;;;;;;;1.77;1.58;;;;;;;;;;5086195;28;20032;-83
2023/03/14 03:08:02;;;;;;;4.10;1.92;;;;;;;;;;5083677;28;20405;-82
2023/03/14 03:10:28;;;;;;;4.38;2.03;;;;;;;;;;5087749;28;20024;-83
2023/03/14 03:12:54;;;;;;;2.05;1.08;;;;;;;;;;5085782;28;20026;-83
2023/03/14 03:15:19;;;;;;;3.35;1.38;;;;;;;;;;5082425;28;20023;-83
2023/03/14 03:17:45;;;;;;;2.50;1.05;;;;;;;;;;5080214;28;20032;-83
2023/03/14 03:20:11;;;;;;;2.97;1.88;;;;;;;;;;5087104;28;20089;-83
2023/03/14 03:22:37;;;;;;;6.88;4.05;;;;;;;;;;5084846;28;20020;-83
2023/03/14 03:25:04;;;;;;;4.78;1.15;;;;;;;;;;5094801;28;20035;-83
2023/03/14 03:27:35;;;;;;;7.55;2.00;;;;;;;;;;5090597;28;20034;-84
2023/03/14 03:30:01;;;;;;;2.20;1.30;;;;;;;;;;5084827;28;20042;-85
2023/03/14 03:32:29;;;;;;;3.00;1.40;;;;;;;;;;5088789;28;20051;-83
2023/03/14 03:34:59;;;;;;;0.85;0.82;;;;;;;;;;5089604;28;20031;-84
2023/03/14 03:37:25;;;;;;;3.88;1.58;;;;;;;;;;5086923;28;20020;-84
2023/03/14 03:39:51;;;;;;;1.02;0.95;;;;;;;;;;5082058;28;20491;-85
2023/03/14 03:42:17;;;;;;;2.38;1.67;;;;;;;;;;5088102;28;20032;-83
2023/03/14 03:44:43;;;;;;;1.17;0.85;;;;;;;;;;5084043;28;20036;-83
2023/03/14 03:47:08;;;;;;;1.38;1.08;;;;;;;;;;5089833;28;20020;-83
2023/03/14 03:49:34;;;;;;;1.67;1.58;;;;;;;;;;5086053;28;20081;-85
2023/03/14 03:52:00;;;;;;;1.77;1.20;;;;;;;;;;5094387;28;20027;-87
2023/03/14 03:54:25;;;;;;;0.60;0.52;;;;;;;;;;5088754;28;20028;-86
2023/03/14 03:56:51;;;;;;;0.60;0.60;;;;;;;;;;5085937;28;20836;-85
2023/03/14 03:59:16;;;;;;;1.80;1.45;;;;;;;;;;5089897;28;20465;-86
2023/03/14 04:01:42;;;;;;;0.98;0.98;;;;;;;;;;5087432;28;20032;-84
2023/03/14 04:04:08;;;;;;;1.70;1.45;;;;;;;;;;5090000;28;20032;-84
2023/03/14 04:06:33;;;;;;;2.17;0.88;;;;;;;;;;5084697;28;20032;-84
2023/03/14 04:08:59;;;;;;;2.03;1.20;;;;;;;;;;5081520;28;20035;-82
2023/03/14 04:11:24;;;;;;;2.83;1.30;;;;;;;;;;5086169;28;20101;-83
2023/03/14 04:13:50;;;;;;;2.03;0.88;;;;;;;;;;5085390;28;20028;-83
2023/03/14 04:16:24;;;;;;;1.38;1.13;;;;;;;;;;5085822;28;20480;-83
2023/03/14 04:18:50;;;;;;;1.90;0.90;;;;;;;;;;5091349;28;20020;-83
2023/03/14 04:21:16;;;;;;;0.98;0.65;;;;;;;;;;5081931;28;20028;-86
2023/03/14 04:23:41;;;;;;;1.75;1.45;;;;;;;;;;5082907;28;20138;-86
2023/03/14 04:26:07;;;;;;;1.10;0.80;;;;;;;;;;5084853;28;20064;-85
2023/03/14 04:28:32;;;;;;;2.53;1.88;;;;;;;;;;5085409;28;20024;-84
2023/03/14 04:30:58;;;;;;;3.47;2.20;;;;;;;;;;5083748;28;20032;-84
2023/03/14 04:33:23;;;;;;;3.97;1.73;;;;;;;;;;5085425;28;20044;-84
2023/03/14 04:35:53;;;;;;;3.38;1.08;;;;;;;;;;5084735;28;20461;-84
2023/03/14 04:38:20;;;;;;;2.28;1.80;;;;;;;;;;5087329;28;20044;-84
2023/03/14 04:40:45;;;;;;;2.85;2.10;;;;;;;;;;5089650;28;20020;-86
2023/03/14 04:43:11;;;;;;;4.78;2.05;;;;;;;;;;5089547;28;20060;-84
2023/03/14 04:45:40;;;;;;;1.38;1.23;;;;;;;;;;5088501;28;20035;-85
2023/03/14 04:48:06;;;;;;;1.13;1.05;;;;;;;;;;5087867;28;20034;-88
2023/03/14 04:50:31;;;;;;;1.30;1.10;;;;;;;;;;5090905;28;20099;-86
2023/03/14 04:52:57;;;;;;;6.72;1.80;;;;;;;;;;5085254;28;20035;-83
2023/03/14 04:55:22;;;;;;;1.17;1.10;;;;;;;;;;5087850;28;20090;-84
2023/03/14 04:57:47;;;;;;;1.88;1.08;;;;;;;;;;5085886;28;20498;-82
2023/03/14 05:00:13;;;;;;;2.17;1.98;;;;;;;;;;5086318;28;20119;-83
2023/03/14 05:02:38;;;;;;;3.80;1.13;;;;;;;;;;5084543;28;20039;-82
2023/03/14 05:05:04;;;;;;;1.48;1.38;;;;;;;;;;5081785;28;20027;-82
2023/03/14 05:07:30;;;;;;;1.45;1.00;;;;;;;;;;5090361;28;20114;-82
2023/03/14 05:09:55;;;;;;;1.60;1.42;;;;;;;;;;5086224;28;20054;-82
2023/03/14 05:12:20;;;;;;;1.13;1.00;;;;;;;;;;5088144;28;20039;-82
2023/03/14 05:14:46;;;;;;;0.50;0.43;;;;;;;;;;5085579;28;20054;-83
2023/03/14 05:17:14;;;;;;;2.70;1.40;;;;;;;;;;5078934;28;20021;-82
2023/03/14 05:19:40;;;;;;;1.38;0.85;;;;;;;;;;5086561;28;20024;-82
2023/03/14 05:22:06;;;;;;;4.93;2.72;;;;;;;;;;5084390;28;20029;-82
2023/03/14 05:24:31;;;;;;;2.13;1.85;;;;;;;;;;5081921;28;20094;-81
2023/03/14 05:26:56;;;;;;;1.75;1.30;;;;;;;;;;5082426;28;20092;-82
2023/03/14 05:29:22;;;;;;;7.07;3.20;;;;;;;;;;5085929;28;20419;-81
2023/03/14 05:31:47;;;;;;;4.03;1.98;;;;;;;;;;5087009;28;20074;-81
2023/03/14 05:34:13;;;;;;;3.88;2.90;;;;;;;;;;5092085;28;20052;-82
2023/03/14 05:36:38;;;;;;;3.42;2.05;;;;;;;;;;5082681;28;20398;-80
2023/03/14 05:39:03;;;;;;;4.80;2.25;;;;;;;;;;5084402;28;20107;-81
2023/03/14 05:41:29;;;;;;;4.22;2.65;;;;;;;;;;5084015;28;20437;-80
2023/03/14 05:43:54;;;;;;;8.48;2.05;;;;;;;;;;5100962;28;20354;-79
2023/03/14 05:46:20;;;;;;;5.55;3.15;;;;;;;;;;5084008;28;20059;-80
2023/03/14 05:48:45;;;;;;;5.18;3.70;;;;;;;;;;5080419;28;20456;-80
2023/03/14 05:51:11;;;;;;;3.65;3.35;;;;;;;;;;5084436;28;20547;-79
2023/03/14 05:53:36;;;;;;;5.78;2.75;;;;;;;;;;5087433;28;20107;-80
2023/03/14 05:56:01;;;;;;;8.00;2.50;;;;;;;;;;5081250;28;20020;-79
2023/03/14 05:58:27;;;;;;;3.72;2.90;;;;;;;;;;5081734;28;20410;-80
2023/03/14 06:00:52;;;;;;;5.63;3.25;;;;;;;;;;5084417;28;20035;-80
2023/03/14 06:03:18;;;;;;;3.97;3.28;;;;;;;;;;5084177;28;20464;-80
2023/03/14 06:05:43;;;;;;;6.45;3.42;;;;;;;;;;5081018;28;20381;-80
2023/03/14 06:08:09;;;;;;;8.30;3.08;;;;;;;;;;5085404;28;20036;-83
2023/03/14 06:10:36;;;;;;;4.28;2.03;;;;;;;;;;5081497;28;20097;-79
2023/03/14 06:13:01;;;;;;;3.25;2.35;;;;;;;;;;5089079;28;20024;-82
2023/03/14 06:15:27;;;;;;;3.67;2.55;;;;;;;;;;5078434;28;20027;-80
2023/03/14 06:17:56;;;;;;;8.77;3.22;;;;;;;;;;5083143;28;20024;-82
2023/03/14 06:20:22;;;;;;;6.65;3.08;;;;;;;;;;5079678;28;20020;-83
2023/03/14 06:22:47;;;;;;;3.55;2.38;;;;;;;;;;5080863;28;20024;-80
2023/03/14 06:25:13;;;;;;;9.65;3.33;;;;;;;;;;5080737;28;20024;-83
2023/03/14 06:27:38;;;;;;;8.20;4.15;;;;;;;;;;5078187;28;20039;-83
2023/03/14 06:30:04;;;;;;;12.25;3.78;;;;;;;;;;5081435;28;20030;-82
2023/03/14 06:32:30;;;;;;;7.28;3.97;;;;;;;;;;5077031;28;20058;-81
2023/03/14 06:34:57;;;;;;;5.93;2.72;;;;;;;;;;5077330;28;20029;-84
2023/03/14 06:37:22;;;;;;;5.10;2.75;;;;;;;;;;5083378;28;20029;-82
2023/03/14 06:39:48;;;;;;;6.57;4.32;;;;;;;;;;5083415;28;20032;-80
2023/03/14 06:42:13;;;;;;;5.70;4.18;;;;;;;;;;5082374;28;20422;-83
2023/03/14 06:44:38;;;;;;;2.75;2.38;;;;;;;;;;5084745;28;20119;-85
2023/03/14 06:47:04;;;;;;;5.20;2.53;;;;;;;;;;5083880;28;20052;-83
2023/03/14 06:49:29;;;;;;;4.68;3.13;;;;;;;;;;5082755;28;20399;-82
2023/03/14 06:51:55;;;;;;;6.68;3.42;;;;;;;;;;5084517;28;20031;-85
2023/03/14 06:54:20;;;;;;;6.82;3.35;;;;;;;;;;5080875;28;20059;-85
2023/03/14 06:56:46;;;;;;;11.60;4.70;;;;;;;;;;5080357;28;20032;-83
2023/03/14 06:59:11;;;;;;;6.97;3.63;;;;;;;;;;5084822;28;20039;-83
2023/03/14 07:01:37;;;;;;;5.93;4.10;;;;;;;;;;5078869;28;20480;-83
2023/03/14 07:04:02;;;;;;;7.57;4.20;;;;;;;;;;5085473;28;20438;-83
2023/03/14 07:06:31;;;;;;;5.68;3.63;;;;;;;;;;5080151;28;20028;-83
2023/03/14 07:08:57;;;;;;;7.72;4.95;;;;;;;;;;5083785;28;20543;-83
2023/03/14 07:11:23;;;;;;;4.60;3.88;;;;;;;;;;5080415;28;20154;-83
2023/03/14 07:13:48;;;;;;;5.93;4.25;;;;;;;;;;5084799;28;20064;-81
2023/03/14 07:16:14;;;;;;;4.53;3.30;;;;;;;;;;5081929;28;20024;-82
2023/03/14 07:18:39;;;;;;;4.78;3.47;;;;;;;;;;5086490;28;20031;-85
2023/03/14 07:21:07;;;;;;;3.92;2.83;;;;;;;;;;5083255;28;20024;-84
2023/03/14 07:23:33;;;;;;;3.85;1.95;;;;;;;;;;5078205;28;20070;-84
2023/03/14 07:26:00;;;;;;;4.25;3.00;;;;;;;;;;5084876;28;20026;-84
2023/03/14 07:28:27;;;;;;;4.95;3.05;;;;;;;;;;5084907;28;20076;-84
2023/03/14 07:30:53;;;;;;;4.63;2.80;;;;;;;;;;5084641;28;20028;-83
2023/03/14 07:33:18;;;;;;;4.72;1.83;;;;;;;;;;5086337;28;20949;-83
2023/03/14 07:35:44;;;;;;;7.25;3.35;;;;;;;;;;5081706;28;20024;-82
2023/03/14 07:38:09;;;;;;;7.63;2.08;;;;;;;;;;5084406;28;20114;-82
2023/03/14 07:40:35;;;;;;;1.50;1.38;;;;;;;;;;5089038;28;20474;-82
2023/03/14 07:43:00;;;;;;;5.22;1.88;;;;;;;;;;5081401;28;20024;-81
2023/03/14 07:45:25;;;;;;;2.30;1.35;;;;;;;;;;5085150;28;20020;-86
2023/03/14 07:47:51;;;;;;;5.38;2.78;;;;;;;;;;5080360;28;20110;-86
2023/03/14 07:50:16;;;;;;;4.72;2.95;;;;;;;;;;5082186;28;20046;-86
2023/03/14 07:52:42;;;;;;;2.33;2.10;;;;;;;;;;5104213;28;20019;-85
2023/03/14 07:55:08;;;;;;;1.80;1.65;;;;;;;;;;5081784;28;20028;-85
2023/03/14 07:57:33;;;;;;;4.65;2.90;;;;;;;;;;5079415;28;20111;-85
2023/03/14 07:59:58;;;;;;;2.45;1.67;;;;;;;;;;5084148;28;20379;-87
2023/03/14 08:02:24;;;;;;;2.90;1.67;;;;;;;;;;5080688;28;20028;-85
2023/03/14 08:04:50;;;;;;;2.90;1.60;;;;;;;;;;5087021;28;20028;-84
2023/03/14 08:07:15;;;;;;;4.57;2.50;;;;;;;;;;5082026;28;20480;-86
2023/03/14 08:09:41;;;;;;;2.42;1.63;;;;;;;;;;5085616;28;20057;-86
2023/03/14 08:12:07;;;;;;;1.88;1.55;;;;;;;;;;5085285;28;20082;-84
2023/03/14 08:14:32;;;;;;;4.75;2.38;;;;;;;;;;5088773;28;20032;-87
2023/03/14 08:16:58;;;;;;;2.83;2.53;;;;;;;;;;5089374;28;20418;-84
2023/03/14 08:19:24;;;;;;;1.85;1.55;;;;;;;;;;5087468;28;20472;-83
2023/03/14 08:21:50;;;;;;;9.38;2.60;;;;;;;;;;5091144;28;20027;-83
2023/03/14 08:24:16;;;;;;;7.88;2.92;;;;;;;;;;5082056;28;20397;-84
2023/03/14 08:26:41;;;;;;;18.13;9.65;;;;;;;;;;5083583;28;20059;-84
2023/03/14 08:29:07;;;;;;;14.68;7.13;;;;;;;;;;5081268;28;20027;-84
2023/03/14 08:31:34;;;;;;;7.18;4.25;;;;;;;;;;5081419;28;20067;-83
2023/03/14 08:34:01;;;;;;;7.18;3.20;;;;;;;;;;5090239;28;20504;-82
2023/03/14 08:36:27;;;;;;;4.18;2.33;;;;;;;;;;5088404;28;20024;-85
2023/03/14 08:38:52;;;;;;;2.83;1.90;;;;;;;;;;5085387;28;20124;-84
2023/03/14 08:41:18;;;;;;;6.15;3.05;;;;;;;;;;5085552;28;20078;-83
2023/03/14 08:43:43;;;;;;;4.10;2.13;;;;;;;;;;5088452;28;20020;-84
2023/03/14 08:46:08;;;;;;;3.90;2.00;;;;;;;;;;5080042;28;20028;-83
2023/03/14 08:48:34;;;;;;;4.38;3.15;;;;;;;;;;5085832;28;20024;-84
2023/03/14 08:51:13;;;;;;;5.78;3.15;;;;;;;;;;5089537;28;20486;-83
2023/03/14 08:53:39;;;;;;;4.05;2.40;;;;;;;;;;5084471;28;20024;-83
2023/03/14 08:56:06;;;;;;;5.75;2.25;;;;;;;;;;5080436;28;20043;-83
2023/03/14 08:58:32;;;;;;;4.03;2.33;;;;;;;;;;5082786;28;20384;-83
2023/03/14 09:00:57;;;;;;;4.03;2.53;;;;;;;;;;5090487;28;20119;-83
2023/03/14 09:03:23;;;;;;;4.30;2.33;;;;;;;;;;5102866;28;20536;-84
2023/03/14 09:05:50;;;;;;;5.05;3.55;;;;;;;;;;5081119;28;20029;-84
2023/03/14 09:08:15;;;;;;;3.03;2.22;;;;;;;;;;5083226;28;20460;-84
2023/03/14 09:10:41;;;;;;;5.55;2.60;;;;;;;;;;5082375;28;20035;-84
2023/03/14 09:13:06;;;;;;;6.13;3.22;;;;;;;;;;5085494;28;20038;-84
2023/03/14 09:15:32;;;;;;;4.88;2.90;;;;;;;;;;5083557;28;20024;-84
2023/03/14 09:17:58;;;;;;;3.28;1.92;;;;;;;;;;5082371;28;20020;-83
2023/03/14 09:20:23;;;;;;;2.85;2.33;;;;;;;;;;5089058;28;20021;-84
2023/03/14 09:22:48;;;;;;;6.50;3.15;;;;;;;;;;5085567;28;20443;-83
2023/03/14 09:25:14;;;;;;;4.80;2.95;;;;;;;;;;5083607;28;20054;-83
2023/03/14 09:27:39;;;;;;;4.00;2.40;;;;;;;;;;5084175;28;20099;-84
2023/03/14 09:30:05;;;;;;;9.43;3.53;;;;;;;;;;5087396;28;20123;-85
2023/03/14 09:32:31;;;;;;;5.05;3.00;;;;;;;;;;5088488;28;20047;-82
2023/03/14 09:34:57;;;;;;;6.72;2.70;;;;;;;;;;5088313;28;20103;-84
2023/03/14 09:37:22;;;;;;;4.60;2.60;;;;;;;;;;5083716;28;20020;-83
2023/03/14 09:39:47;;;;;;;4.88;3.60;;;;;;;;;;5087760;28;20024;-83
2023/03/14 09:42:17;;;;;;;6.32;2.97;;;;;;;;;;5088626;28;20035;-83
2023/03/14 09:44:53;;;;;;;6.03;3.88;;;;;;;;;;5083229;28;20093;-81
2023/03/14 09:47:20;;;;;;;3.88;2.42;;;;;;;;;;5086784;28;20029;-82
2023/03/14 09:49:45;;;;;;;4.22;2.22;;;;;;;;;;5085507;28;20471;-82
2023/03/14 09:52:35;;;;;;;5.40;2.70;;;;;;;;;;5086083;28;20040;-82
2023/03/14 09:55:06;;;;;;;7.63;3.83;;;;;;;;;;5081796;28;20024;-83
2023/03/14 09:57:35;;;;;;;8.15;3.17;;;;;;;;;;5083449;28;20255;-82
2023/03/14 10:00:13;;;;;;;3.95;3.13;;;;;;;;;;5081214;28;20043;-83
2023/03/14 10:02:41;;;;;;;10.43;3.47;;;;;;;;;;5085976;28;20483;-83
2023/03/14 10:05:18;;;;;;;5.68;3.95;;;;;;;;;;5087049;28;20066;-83
2023/03/14 10:07:44;;;;;;;4.97;2.78;;;;;;;;;;5082770;28;20421;-83
2023/03/14 10:10:22;;;;;;;7.22;3.17;;;;;;;;;;5082214;28;20112;-82
2023/03/14 10:12:59;;;;;;;7.50;3.72;;;;;;;;;;5084117;28;20035;-84
2023/03/14 10:15:32;;;;;;;6.25;3.25;;;;;;;;;;5086504;28;20020;-83
2023/03/14 10:18:00;;;;;;;8.43;3.72;;;;;;;;;;5081337;28;20024;-86
2023/03/14 10:20:32;;;;;;;6.63;3.92;;;;;;;;;;5084354;28;20518;-86
2023/03/14 10:23:04;;;;;;;10.35;2.88;;;;;;;;;;5105991;28;20077;-82
2023/03/14 10:25:35;;;;;;;6.35;3.45;;;;;;;;;;5084544;28;20504;-81
2023/03/14 10:28:03;;;;;;;4.35;2.78;;;;;;;;;;5082671;28;20044;-79
2023/03/14 10:30:43;;;;;;;5.38;3.35;;;;;;;;;;5083871;28;20502;-80
2023/03/14 10:33:23;;;;;;;6.10;3.45;;;;;;;;;;5082225;28;20059;-80
2023/03/14 10:35:56;;;;;;;;;;;;;;;;;;5082078;28;20024;-81
2023/03/14 10:38:25;;;;;;;4.03;2.85;;;;;;;;;;5088037;28;19915;-79
2023/03/14 10:40:52;;;;;;;6.78;2.97;;;;;;;;;;5083710;28;20471;-81
2023/03/14 10:43:33;;;;;;;11.07;3.28;;;;;;;;;;5077206;28;20089;-80
2023/03/14 10:46:05;;;;;;;6.55;3.72;;;;;;;;;;5084152;28;20138;-81
2023/03/14 10:48:33;;;;;;;5.45;2.40;;;;;;;;;;5089951;28;20047;-80
2023/03/14 10:51:29;;;;;;;4.03;2.42;;;;;;;;;;5083388;28;20115;-82
2023/03/14 10:54:18;;;;;;;4.07;2.30;;;;;;;;;;5080305;28;20036;-82
2023/03/14 10:56:44;;;;;;;4.35;2.13;;;;;;;;;;5080922;28;20027;-81
2023/03/14 10:59:15;;;;;;;3.78;1.98;;;;;;;;;;5087357;28;20036;-81
2023/03/14 11:01:53;;;;;;;9.77;2.85;;;;;;;;;;5084405;28;20110;-80
2023/03/14 11:04:49;;;;;;;3.55;2.60;;;;;;;;;;5079876;28;20024;-82
2023/03/14 11:07:29;;;;;;;4.10;1.98;;;;;;;;;;5085832;28;20028;-82
2023/03/14 11:10:05;;;;;;;5.22;2.20;;;;;;;;;;5081546;28;20024;-83
2023/03/14 11:12:30;;;;;;;4.40;2.42;;;;;;;;;;5105183;28;20450;-83
2023/03/14 11:15:03;;;;;;;4.28;2.10;;;;;;;;;;5081999;28;20103;-78
2023/03/14 11:17:52;;;;;;;2.42;1.95;;;;;;;;;;5087975;28;20035;-82
2023/03/14 11:20:47;;;;;;;6.00;2.97;;;;;;;;;;5087755;28;20473;-82
2023/03/14 11:23:19;;;;;;;3.65;2.42;;;;;;;;;;5084440;28;20043;-79
2023/03/14 11:25:49;;;;;;;6.93;2.60;;;;;;;;;;5083888;28;20480;-81
2023/03/14 11:28:36;;;;;;;5.55;2.42;;;;;;;;;;5088172;28;20035;-81
2023/03/14 11:31:07;;;;;;;3.83;2.13;;;;;;;;;;5091109;28;20059;-79
2023/03/14 11:33:59;;;;;;;5.32;2.70;;;;;;;;;;5088537;28;20047;-82
2023/03/14 11:36:52;;;;;;;5.10;2.45;;;;;;;;;;5068455;28;20044;-81
2023/03/14 11:39:19;;;;;;;3.90;2.28;;;;;;;;;;5085018;28;20036;-80
2023/03/14 11:41:57;;;;;;;2.55;1.92;;;;;;;;;;5090666;28;20484;-83
2023/03/14 11:44:25;;;;;;;3.53;1.45;;;;;;;;;;5109372;28;20032;-80
2023/03/14 11:46:59;;;;;;;3.25;2.13;;;;;;;;;;5087606;28;20028;-82
2023/03/14 11:49:28;;;;;;;3.75;1.90;;;;;;;;;;5090248;28;20063;-81
2023/03/14 11:51:59;;;;;;;2.53;1.45;;;;;;;;;;5090154;28;20032;-81
2023/03/14 11:54:34;;;;;;;2.28;1.42;;;;;;;;;;5092077;28;20032;-81
2023/03/14 11:57:03;;;;;;;1.33;1.20;;;;;;;;;;5092636;28;20483;-81
2023/03/14 11:59:31;;;;;;;3.15;1.92;;;;;;;;;;5085154;28;20061;-80
2023/03/14 12:02:10;;;;;;;2.20;1.35;;;;;;;;;;5089557;28;20024;-81
2023/03/14 12:04:41;;;;;;;3.70;1.80;;;;;;;;;;5085777;28;20082;-84
2023/03/14 12:07:32;;;;;;;4.78;2.13;;;;;;;;;;5090211;28;20055;-78
2023/03/14 12:09:58;;;;;;;2.53;1.35;;;;;;;;;;5083436;28;20112;-79
2023/03/14 12:12:26;;;;;;;2.30;1.40;;;;;;;;;;5074802;28;20116;-78
2023/03/14 12:14:54;;;;;;;2.65;1.48;;;;;;;;;;5081921;28;20426;-78
2023/03/14 12:17:19;;;;;;;2.60;1.50;;;;;;;;;;5088799;28;20528;-80
2023/03/14 12:19:46;;;;;;;2.17;1.02;;;;;;;;;;5088299;28;20103;-82
2023/03/14 12:22:24;;;;;;;3.72;1.38;;;;;;;;;;5090165;28;20349;-79
2023/03/14 12:24:55;;;;;;;2.55;1.25;;;;;;;;;;5093307;28;20360;-83
2023/03/14 12:27:54;;;;;;;1.58;1.10;;;;;;;;;;5080258;28;20028;-80
2023/03/14 12:30:33;;;;;;;1.15;0.93;;;;;;;;;;5086127;28;20043;-79
2023/03/14 12:33:16;;;;;;;3.03;1.35;;;;;;;;;;5105376;28;20052;-80
2023/03/14 12:35:49;;;;;;;3.05;1.48;;;;;;;;;;5089964;28;20034;-79
2023/03/14 12:38:36;;;;;;;1.75;1.30;;;;;;;;;;5087728;28;20024;-80
2023/03/14 12:41:17;;;;;;;2.70;1.30;;;;;;;;;;5092262;28;20467;-80
2023/03/14 12:43:43;;;;;;;3.08;1.35;;;;;;;;;;5091163;28;20139;-79
2023/03/14 12:46:17;;;;;;;1.73;1.13;;;;;;;;;;5087501;28;20539;-80
2023/03/14 12:49:08;;;;;;;1.42;1.23;;;;;;;;;;5089784;28;20031;-79
2023/03/14 12:51:39;;;;;;;2.10;0.95;;;;;;;;;;5091190;28;20036;-80
2023/03/14 12:54:13;;;;;;;1.23;1.00;;;;;;;;;;5092807;28;20384;-80
2023/03/14 12:57:14;;;;;;;1.88;1.25;;;;;;;;;;5091162;28;20757;-82
2023/03/14 13:00:00;;;;;;;3.85;1.58;;;;;;;;;;5090958;28;20031;-80
2023/03/14 13:02:39;;;;;;;1.88;1.35;;;;;;;;;;5078776;28;20573;-79
2023/03/14 13:05:11;;;;;;;1.95;1.20;;;;;;;;;;5090103;28;20020;-78
2023/03/14 13:07:44;;;;;;;2.22;1.35;;;;;;;;;;5092712;28;20387;-79
2023/03/14 13:10:09;;;;;;;3.35;1.25;;;;;;;;;;5087302;28;20035;-78
2023/03/14 13:13:10;;;;;;;1.67;1.13;;;;;;;;;;5090464;28;20476;-77
2023/03/14 13:15:41;;;;;;;4.70;1.95;;;;;;;;;;5085124;28;20119;-78
2023/03/14 13:18:17;;;;;;;1.75;1.20;;;;;;;;;;5081627;28;20045;-78
2023/03/14 13:20:51;;;;;;;1.52;1.23;;;;;;;;;;5091224;28;20055;-81
2023/03/14 13:23:29;;;;;;;2.10;1.40;;;;;;;;;;5087469;28;21629;-78
2023/03/14 13:25:55;;;;;;;2.28;1.42;;;;;;;;;;5085026;28;20079;-80
2023/03/14 13:28:21;;;;;;;3.40;1.52;;;;;;;;;;5087943;28;20020;-79
2023/03/14 13:30:58;;;;;;;2.00;1.48;;;;;;;;;;5092017;28;20062;-80
2023/03/14 13:33:24;;;;;;;1.63;1.20;;;;;;;;;;5090889;28;20044;-79
2023/03/14 13:35:56;;;;;;;3.17;1.58;;;;;;;;;;5083306;28;20020;-80
2023/03/14 13:38:25;;;;;;;1.30;1.08;;;;;;;;;;5089139;28;20024;-79
2023/03/14 13:40:53;;;;;;;2.08;1.00;;;;;;;;;;5090901;28;20035;-80
2023/03/14 13:43:30;;;;;;;2.88;1.13;;;;;;;;;;5091779;28;20161;-80
2023/03/14 13:46:02;;;;;;;1.70;1.20;;;;;;;;;;5091506;28;20032;-79
2023/03/14 13:48:29;;;;;;;1.77;1.20;;;;;;;;;;5091729;28;20554;-80
2023/03/14 13:51:10;;;;;;;1.90;1.20;;;;;;;;;;5083941;28;20024;-80
2023/03/14 13:53:53;;;;;;;1.48;1.10;;;;;;;;;;5090921;28;20028;-79
2023/03/14 13:56:20;;;;;;;1.73;1.00;;;;;;;;;;5085107;28;20032;-80
2023/03/14 13:58:46;;;;;;;1.20;0.88;;;;;;;;;;5088587;28;20110;-80
2023/03/14 14:01:26;;;;;;;1.63;1.00;;;;;;;;;;5088246;28;20173;-80
2023/03/14 14:03:55;;;;;;;1.90;1.08;;;;;;;;;;5078447;28;20391;-79
2023/03/14 14:06:28;;;;;;;2.25;1.10;;;;;;;;;;5091556;28;20039;-80
2023/03/14 14:08:55;;;;;;;1.30;0.93;;;;;;;;;;5091296;28;20027;-80
2023/03/14 14:11:44;;;;;;;2.42;1.10;;;;;;;;;;5083027;28;20035;-80
2023/03/14 14:14:23;;;;;;;1.65;0.95;;;;;;;;;;5090908;28;20031;-80
2023/03/14 14:16:50;;;;;;;1.98;1.10;;;;;;;;;;5091155;28;20020;-80
2023/03/14 14:19:18;;;;;;;3.40;1.30;;;;;;;;;;5085845;28;20036;-80
2023/03/14 14:21:45;;;;;;;2.03;0.90;;;;;;;;;;5089082;28;20384;-80
2023/03/14 14:24:16;;;;;;;1.58;0.88;;;;;;;;;;5091098;28;20756;-80
2023/03/14 14:26:53;;;;;;;4.60;1.35;;;;;;;;;;5091440;28;20028;-80
2023/03/14 14:29:28;;;;;;;1.60;0.82;;;;;;;;;;5077683;28;20024;-80
2023/03/14 14:32:19;;;;;;;1.50;0.90;;;;;;;;;;5103345;28;20157;-80
2023/03/14 14:35:06;;;;;;;1.70;1.02;;;;;;;;;;5085984;28;20040;-80
2023/03/14 14:37:34;;;;;;;1.77;0.98;;;;;;;;;;5077772;28;20032;-80
2023/03/14 14:40:26;;;;;;;1.20;0.93;;;;;;;;;;5083861;28;20040;-80
2023/03/14 14:42:52;;;;;;;2.25;0.88;;;;;;;;;;5088186;28;20494;-80
2023/03/14 14:45:20;;;;;;;1.88;1.00;;;;;;;;;;5089377;28;20066;-80
2023/03/14 14:47:51;;;;;;;3.63;2.13;;;;;;;;;;5089655;28;20519;-80
2023/03/14 14:50:30;;;;;;;4.13;1.67;;;;;;;;;;5090742;28;20712;-81
2023/03/14 14:53:00;;;;;;;2.42;1.08;;;;;;;;;;5105792;28;20039;-80
2023/03/14 14:55:32;;;;;;;0.85;0.75;;;;;;;;;;5090484;28;20051;-80